KERI

Erie International / Tom Ridge Field Airport

Erie, Pennsylvania, USA
KERI 221133Z 2212/2312 14008KT P6SM BKN120 FM222100 17013KT P6SM FEW250 FM230700 18017G27KT P6SM OVC050 FM230900 18018G28KT 5SM -RAPL OVC030
Issued Valid From Valid To
Jan-22 @ 11:33 UTC
(5 hours ago)
Jan-22 @ 12:00 UTC
(5 hours ago)
Jan-23 @ 12:00 UTC
(in 19 hours)
Jan-22 @ 12:00 to Jan-22 @ 21:00
KERI 221133Z 2212/2312 14008KT P6SM BKN120
Wind Visibility Clouds
140° at 8 knots Greater than 6 miles
  • Broken at 12,000' AGL
From Jan-22 @ 21:00 to Jan-23 @ 07:00
FM222100 17013KT P6SM FEW250
Wind Visibility Clouds
170° at 13 knots Greater than 6 miles
  • Few at 25,000' AGL
From Jan-23 @ 07:00 to Jan-23 @ 09:00
FM230700 18017G27KT P6SM OVC050
Wind Visibility Clouds
180° at 17 knots
 Gusting to 27 knots
Greater than 6 miles
  • Overcast at 5,000' AGL
From Jan-23 @ 09:00 to Jan-23 @ 12:00
FM230900 18018G28KT 5SM -RAPL OVC030
Wind Visibility Clouds Conditions
180° at 18 knots
 Gusting to 28 knots
5 miles
  • Overcast at 3,000' AGL
  • Light Rain
KERI 221133Z 2212/2312 14008KT P6SM BKN120 FM222100 17013KT P6SM FEW250 FM230700 18017G27KT P6SM OVC050 FM230900 18018G28KT 5SM -RAPL OVC030
Issued Jan-22 @ 11:33 UTC
(5 hours ago)
Valid From Jan-22 @ 12:00 UTC
(5 hours ago)
Valid To Jan-23 @ 12:00 UTC
(in 19 hours)
Jan-22 @ 12:00 - Jan-22 @ 21:00
Wind Visibility
140° at 8 knots Greater than 6 miles
Clouds
  • Broken at 12,000' AGL
From Jan-22 @ 21:00 - Jan-23 @ 07:00
Wind Visibility
170° at 13 knots Greater than 6 miles
Clouds
  • Few at 25,000' AGL
From Jan-23 @ 07:00 - Jan-23 @ 09:00
Wind Visibility
180° at 17 knots
 Gusting to 27 knots
Greater than 6 miles
Clouds
  • Overcast at 5,000' AGL
From Jan-23 @ 09:00 - Jan-23 @ 12:00
Wind Visibility
180° at 18 knots
 Gusting to 28 knots
5 miles
Clouds
  • Overcast at 3,000' AGL
Conditions
  • Light Rain